sensor_id;sensor_type;location;lat;lon;timestamp;pressure;altitude;pressure_sealevel;temperature;humidity
23643;BME280;11998;55.788;37.572;2022-09-01T00:00:52;98345.66;;;11.97;100.00
23643;BME280;11998;55.788;37.572;2022-09-01T00:01:53;98346.66;;;11.95;100.00
23643;BME280;11998;55.788;37.572;2022-09-01T00:02:54;98340.78;;;11.88;100.00
23643;BME280;11998;55.788;37.572;2022-09-01T00:03:57;98346.94;;;11.89;100.00
23643;BME280;11998;55.788;37.572;2022-09-01T00:05:03;98343.41;;;11.88;100.00
23643;BME280;11998;55.788;37.572;2022-09-01T00:06:04;98351.25;;;11.91;100.00
23643;BME280;11998;55.788;37.572;2022-09-01T00:07:11;98349.66;;;11.87;100.00
23643;BME280;11998;55.788;37.572;2022-09-01T00:08:12;98346.22;;;11.85;100.00
23643;BME280;11998;55.788;37.572;2022-09-01T00:09:15;98345.66;;;11.77;100.00
23643;BME280;11998;55.788;37.572;2022-09-01T00:10:16;98354.78;;;11.71;100.00
23643;BME280;11998;55.788;37.572;2022-09-01T00:11:18;98349.59;;;11.68;100.00
23643;BME280;11998;55.788;37.572;2022-09-01T00:12:18;98350.63;;;11.66;100.00
23643;BME280;11998;55.788;37.572;2022-09-01T00:13:21;98355.00;;;11.67;100.00
23643;BME280;11998;55.788;37.572;2022-09-01T00:14:27;98347.28;;;11.61;100.00
23643;BME280;11998;55.788;37.572;2022-09-01T00:15:29;98347.44;;;11.58;100.00
23643;BME280;11998;55.788;37.572;2022-09-01T00:16:29;98350.16;;;11.56;100.00
23643;BME280;11998;55.788;37.572;2022-09-01T00:17:30;98358.19;;;11.55;100.00
23643;BME280;11998;55.788;37.572;2022-09-01T00:18:31;98351.16;;;11.54;100.00
23643;BME280;11998;55.788;37.572;2022-09-01T00:19:32;98348.53;;;11.52;100.00
23643;BME280;11998;55.788;37.572;2022-09-01T00:20:33;98350.41;;;11.50;100.00
23643;BME280;11998;55.788;37.572;2022-09-01T00:21:37;98360.00;;;11.53;100.00
23643;BME280;11998;55.788;37.572;2022-09-01T00:22:38;98354.72;;;11.53;100.00
23643;BME280;11998;55.788;37.572;2022-09-01T00:23:39;98358.03;;;11.58;100.00
23643;BME280;11998;55.788;37.572;2022-09-01T00:24:40;98357.19;;;11.57;100.00
23643;BME280;11998;55.788;37.572;2022-09-01T00:25:40;98357.03;;;11.60;100.00
23643;BME280;11998;55.788;37.572;2022-09-01T00:26:41;98363.06;;;11.64;100.00
23643;BME280;11998;55.788;37.572;2022-09-01T00:27:42;98363.06;;;11.64;100.00
23643;BME280;11998;55.788;37.572;2022-09-01T00:28:43;98361.25;;;11.64;100.00
23643;BME280;11998;55.788;37.572;2022-09-01T00:29:43;98353.44;;;11.61;100.00
23643;BME280;11998;55.788;37.572;2022-09-01T00:30:44;98359.34;;;11.68;100.00
23643;BME280;11998;55.788;37.572;2022-09-01T00:31:45;98354.16;;;11.65;100.00
23643;BME280;11998;55.788;37.572;2022-09-01T00:32:45;98352.03;;;11.73;100.00
23643;BME280;11998;55.788;37.572;2022-09-01T00:33:47;98350.19;;;11.75;100.00
23643;BME280;11998;55.788;37.572;2022-09-01T00:34:48;98352.69;;;11.78;100.00
23643;BME280;11998;55.788;37.572;2022-09-01T00:35:49;98353.63;;;11.77;100.00
23643;BME280;11998;55.788;37.572;2022-09-01T00:36:49;98349.25;;;11.76;100.00
23643;BME280;11998;55.788;37.572;2022-09-01T00:37:50;98354.78;;;11.71;100.00
23643;BME280;11998;55.788;37.572;2022-09-01T00:38:52;98354.91;;;11.68;100.00
23643;BME280;11998;55.788;37.572;2022-09-01T00:39:53;98352.44;;;11.64;100.00
23643;BME280;11998;55.788;37.572;2022-09-01T00:40:54;98348.75;;;11.68;100.00
23643;BME280;11998;55.788;37.572;2022-09-01T00:41:54;98351.41;;;11.68;100.00
23643;BME280;11998;55.788;37.572;2022-09-01T00:42:55;98353.13;;;11.69;100.00
23643;BME280;11998;55.788;37.572;2022-09-01T00:44:02;98348.75;;;11.68;100.00
23643;BME280;11998;55.788;37.572;2022-09-01T00:45:06;98350.31;;;11.72;100.00
23643;BME280;11998;55.788;37.572;2022-09-01T00:46:11;98352.34;;;11.67;100.00
23643;BME280;11998;55.788;37.572;2022-09-01T00:47:13;98351.94;;;11.56;100.00
23643;BME280;11998;55.788;37.572;2022-09-01T00:48:14;98355.25;;;11.61;100.00
23643;BME280;11998;55.788;37.572;2022-09-01T00:49:20;98349.94;;;11.61;100.00
23643;BME280;11998;55.788;37.572;2022-09-01T00:50:22;98350.09;;;11.58;100.00
23643;BME280;11998;55.788;37.572;2022-09-01T00:51:24;98351.00;;;11.57;100.00
23643;BME280;11998;55.788;37.572;2022-09-01T00:52:31;98352.97;;;11.52;100.00
23643;BME280;11998;55.788;37.572;2022-09-01T00:53:34;98353.75;;;11.55;100.00
23643;BME280;11998;55.788;37.572;2022-09-01T00:54:41;98357.34;;;11.53;100.00
23643;BME280;11998;55.788;37.572;2022-09-01T00:55:43;98354.72;;;11.53;100.00
23643;BME280;11998;55.788;37.572;2022-09-01T00:56:44;98359.22;;;11.51;100.00
23643;BME280;11998;55.788;37.572;2022-09-01T00:57:45;98355.72;;;11.50;100.00
23643;BME280;11998;55.788;37.572;2022-09-01T00:58:46;98353.13;;;11.48;100.00
23643;BME280;11998;55.788;37.572;2022-09-01T01:00:00;98358.72;;;11.42;100.00
23643;BME280;11998;55.788;37.572;2022-09-01T01:01:04;98351.72;;;11.40;100.00
23643;BME280;11998;55.788;37.572;2022-09-01T01:02:05;98357.00;;;11.41;100.00
23643;BME280;11998;55.788;37.572;2022-09-01T01:03:07;98359.56;;;11.43;100.00
23643;BME280;11998;55.788;37.572;2022-09-01T01:04:09;98355.31;;;11.39;100.00
23643;BME280;11998;55.788;37.572;2022-09-01T01:05:14;98352.78;;;11.36;100.00
23643;BME280;11998;55.788;37.572;2022-09-01T01:06:15;98360.09;;;11.31;100.00
23643;BME280;11998;55.788;37.572;2022-09-01T01:07:19;98359.16;;;11.32;100.00
23643;BME280;11998;55.788;37.572;2022-09-01T01:08:27;98364.41;;;11.33;100.00
23643;BME280;11998;55.788;37.572;2022-09-01T01:09:35;98364.41;;;11.33;100.00
23643;BME280;11998;55.788;37.572;2022-09-01T01:10:40;98361.91;;;11.30;100.00
23643;BME280;11998;55.788;37.572;2022-09-01T01:11:41;98366.50;;;11.25;100.00
23643;BME280;11998;55.788;37.572;2022-09-01T01:12:47;98363.13;;;11.22;100.00
23643;BME280;11998;55.788;37.572;2022-09-01T01:14:01;98358.03;;;11.17;100.00
23643;BME280;11998;55.788;37.572;2022-09-01T01:15:11;98360.00;;;11.12;100.00
23643;BME280;11998;55.788;37.572;2022-09-01T01:16:12;98356.56;;;11.10;100.00
23643;BME280;11998;55.788;37.572;2022-09-01T01:17:20;98358.41;;;11.08;100.00
23643;BME280;11998;55.788;37.572;2022-09-01T01:18:21;98362.84;;;11.07;100.00
23643;BME280;11998;55.788;37.572;2022-09-01T01:19:31;98353.13;;;11.08;100.00
23643;BME280;11998;55.788;37.572;2022-09-01T01:20:59;98362.38;;;10.98;100.00
23643;BME280;11998;55.788;37.572;2022-09-01T01:22:27;98359.06;;;10.93;100.00
23643;BME280;11998;55.788;37.572;2022-09-01T01:23:57;98359.31;;;10.86;100.00
23643;BME280;11998;55.788;37.572;2022-09-01T01:25:01;98351.56;;;10.82;100.00
23643;BME280;11998;55.788;37.572;2022-09-01T01:26:04;98357.72;;;10.82;100.00
23643;BME280;11998;55.788;37.572;2022-09-01T01:27:05;98348.97;;;10.80;100.00
23643;BME280;11998;55.788;37.572;2022-09-01T01:28:22;98358.72;;;10.80;100.00
23643;BME280;11998;55.788;37.572;2022-09-01T01:29:24;98353.44;;;10.78;100.00
23643;BME280;11998;55.788;37.572;2022-09-01T01:30:28;98345.50;;;10.78;100.00
23643;BME280;11998;55.788;37.572;2022-09-01T01:31:32;98351.06;;;10.72;100.00
23643;BME280;11998;55.788;37.572;2022-09-01T01:32:34;98350.34;;;10.69;100.00
23643;BME280;11998;55.788;37.572;2022-09-01T01:33:51;98351.28;;;10.66;100.00
23643;BME280;11998;55.788;37.572;2022-09-01T01:34:52;98349.56;;;10.65;100.00
23643;BME280;11998;55.788;37.572;2022-09-01T01:35:53;98351.44;;;10.63;100.00
23643;BME280;11998;55.788;37.572;2022-09-01T01:36:56;98353.03;;;10.67;100.00
23643;BME280;11998;55.788;37.572;2022-09-01T01:38:00;98354.88;;;10.65;100.00
23643;BME280;11998;55.788;37.572;2022-09-01T01:39:09;98354.88;;;10.65;100.00
23643;BME280;11998;55.788;37.572;2022-09-01T01:40:11;98352.13;;;10.68;100.00
23643;BME280;11998;55.788;37.572;2022-09-01T01:41:15;98351.44;;;10.63;100.00
23643;BME280;11998;55.788;37.572;2022-09-01T01:42:18;98346.00;;;10.66;100.00
23643;BME280;11998;55.788;37.572;2022-09-01T01:43:20;98353.16;;;10.64;100.00
23643;BME280;11998;55.788;37.572;2022-09-01T01:44:24;98353.03;;;10.67;100.00
23643;BME280;11998;55.788;37.572;2022-09-01T01:45:27;98348.66;;;10.66;100.00
23643;BME280;11998;55.788;37.572;2022-09-01T01:46:30;98353.16;;;10.64;100.00
23643;BME280;11998;55.788;37.572;2022-09-01T01:47:31;98354.88;;;10.65;100.00
23643;BME280;11998;55.788;37.572;2022-09-01T01:48:31;98350.69;;;10.59;100.00
23643;BME280;11998;55.788;37.572;2022-09-01T01:49:35;98354.34;;;10.57;100.00
23643;BME280;11998;55.788;37.572;2022-09-01T01:50:36;98359.63;;;10.57;100.00
23643;BME280;11998;55.788;37.572;2022-09-01T01:51:37;98360.63;;;10.54;100.00
23643;BME280;11998;55.788;37.572;2022-09-01T01:52:38;98361.47;;;10.55;100.00
23643;BME280;11998;55.788;37.572;2022-09-01T01:53:39;98364.13;;;10.55;100.00
23643;BME280;11998;55.788;37.572;2022-09-01T01:54:40;98365.84;;;10.56;100.00
23643;BME280;11998;55.788;37.572;2022-09-01T01:55:41;98351.69;;;10.57;100.00
23643;BME280;11998;55.788;37.572;2022-09-01T01:56:42;98363.44;;;10.50;100.00
23643;BME280;11998;55.788;37.572;2022-09-01T01:57:44;98363.50;;;10.48;100.00
23643;BME280;11998;55.788;37.572;2022-09-01T01:58:48;98357.34;;;10.48;100.00
23643;BME280;11998;55.788;37.572;2022-09-01T01:59:49;98366.22;;;10.47;100.00
23643;BME280;11998;55.788;37.572;2022-09-01T02:00:51;98351.25;;;10.46;100.00
23643;BME280;11998;55.788;37.572;2022-09-01T02:01:53;98366.41;;;10.42;100.00
23643;BME280;11998;55.788;37.572;2022-09-01T02:02:54;98359.53;;;10.37;100.00
23643;BME280;11998;55.788;37.572;2022-09-01T02:03:55;98357.81;;;10.36;100.00
23643;BME280;11998;55.788;37.572;2022-09-01T02:04:56;98357.94;;;10.33;100.00
23643;BME280;11998;55.788;37.572;2022-09-01T02:05:59;98359.75;;;10.32;100.00
23643;BME280;11998;55.788;37.572;2022-09-01T02:07:04;98365.09;;;10.31;100.00
23643;BME280;11998;55.788;37.572;2022-09-01T02:08:08;98362.59;;;10.26;100.00
23643;BME280;11998;55.788;37.572;2022-09-01T02:09:09;98354.84;;;10.21;100.00
23643;BME280;11998;55.788;37.572;2022-09-01T02:10:09;98367.16;;;10.22;100.00
23643;BME280;11998;55.788;37.572;2022-09-01T02:11:12;98361.03;;;10.20;100.00
23643;BME280;11998;55.788;37.572;2022-09-01T02:12:16;98359.38;;;10.18;100.00
23643;BME280;11998;55.788;37.572;2022-09-01T02:13:20;98365.53;;;10.18;100.00
23643;BME280;11998;55.788;37.572;2022-09-01T02:14:27;98368.13;;;10.20;100.00
23643;BME280;11998;55.788;37.572;2022-09-01T02:15:29;98364.75;;;10.15;100.00
23643;BME280;11998;55.788;37.572;2022-09-01T02:16:33;98359.53;;;10.13;100.00
23643;BME280;11998;55.788;37.572;2022-09-01T02:17:33;98356.16;;;10.10;100.00
23643;BME280;11998;55.788;37.572;2022-09-01T02:18:37;98367.81;;;10.04;100.00
23643;BME280;11998;55.788;37.572;2022-09-01T02:19:38;98360.78;;;10.03;100.00
23643;BME280;11998;55.788;37.572;2022-09-01T02:20:42;98362.53;;;10.04;100.00
23643;BME280;11998;55.788;37.572;2022-09-01T02:21:43;98360.78;;;10.03;100.00
23643;BME280;11998;55.788;37.572;2022-09-01T02:22:48;98364.28;;;10.05;100.00
23643;BME280;11998;55.788;37.572;2022-09-01T02:23:57;98380.16;;;10.05;100.00
23643;BME280;11998;55.788;37.572;2022-09-01T02:25:01;98372.31;;;10.02;100.00
23643;BME280;11998;55.788;37.572;2022-09-01T02:26:02;98369.66;;;10.02;100.00
23643;BME280;11998;55.788;37.572;2022-09-01T02:27:05;98374.03;;;10.03;100.00
23643;BME280;11998;55.788;37.572;2022-09-01T02:28:06;98370.69;;;9.98;100.00
23643;BME280;11998;55.788;37.572;2022-09-01T02:29:12;98368.97;;;9.97;100.00
23643;BME280;11998;55.788;37.572;2022-09-01T02:30:17;98369.03;;;9.95;100.00
23643;BME280;11998;55.788;37.572;2022-09-01T02:31:17;98370.75;;;9.96;100.00
23643;BME280;11998;55.788;37.572;2022-09-01T02:32:19;98366.41;;;9.95;100.00
23643;BME280;11998;55.788;37.572;2022-09-01T02:33:22;98369.78;;;9.99;100.00
23643;BME280;11998;55.788;37.572;2022-09-01T02:34:24;98362.66;;;10.01;100.00
23643;BME280;11998;55.788;37.572;2022-09-01T02:35:27;98367.06;;;10.00;100.00
23643;BME280;11998;55.788;37.572;2022-09-01T02:36:31;98371.50;;;10.00;100.00
23643;BME280;11998;55.788;37.572;2022-09-01T02:37:37;98366.22;;;10.00;100.00
23643;BME280;11998;55.788;37.572;2022-09-01T02:38:39;98360.00;;;10.01;100.00
23643;BME280;11998;55.788;37.572;2022-09-01T02:39:41;98376.59;;;10.06;100.00
23643;BME280;11998;55.788;37.572;2022-09-01T02:40:41;98369.56;;;10.05;100.00
23643;BME280;11998;55.788;37.572;2022-09-01T02:41:44;98366.00;;;10.06;100.00
23643;BME280;11998;55.788;37.572;2022-09-01T02:42:45;98364.16;;;10.08;100.00
23643;BME280;11998;55.788;37.572;2022-09-01T02:43:47;98370.25;;;10.10;100.00
23643;BME280;11998;55.788;37.572;2022-09-01T02:44:48;98364.16;;;10.08;100.00
23643;BME280;11998;55.788;37.572;2022-09-01T02:45:50;98370.06;;;10.15;100.00
23643;BME280;11998;55.788;37.572;2022-09-01T02:46:54;98373.56;;;10.15;100.00
23643;BME280;11998;55.788;37.572;2022-09-01T02:47:56;98363.03;;;10.14;100.00
23643;BME280;11998;55.788;37.572;2022-09-01T02:48:56;98369.19;;;10.14;100.00
23643;BME280;11998;55.788;37.572;2022-09-01T02:49:59;98366.47;;;10.16;100.00
23643;BME280;11998;55.788;37.572;2022-09-01T02:51:02;98368.97;;;10.20;100.00
23643;BME280;11998;55.788;37.572;2022-09-01T02:52:03;98375.13;;;10.21;100.00
23643;BME280;11998;55.788;37.572;2022-09-01T02:53:05;98373.31;;;10.23;100.00
23643;BME280;11998;55.788;37.572;2022-09-01T02:54:10;98380.41;;;10.22;100.00
23643;BME280;11998;55.788;37.572;2022-09-01T02:55:19;98367.25;;;10.19;100.00
23643;BME280;11998;55.788;37.572;2022-09-01T02:56:23;98364.66;;;10.18;100.00
23643;BME280;11998;55.788;37.572;2022-09-01T02:57:24;98365.63;;;10.15;100.00
23643;BME280;11998;55.788;37.572;2022-09-01T02:58:26;98365.53;;;10.18;100.00
23643;BME280;11998;55.788;37.572;2022-09-01T02:59:28;98361.25;;;10.14;100.00
23643;BME280;11998;55.788;37.572;2022-09-01T03:00:29;98357.75;;;10.14;100.00
23643;BME280;11998;55.788;37.572;2022-09-01T03:01:38;98363.09;;;10.12;100.00
23643;BME280;11998;55.788;37.572;2022-09-01T03:02:40;98362.19;;;10.13;100.00
23643;BME280;11998;55.788;37.572;2022-09-01T03:03:40;98351.38;;;10.19;100.00
23643;BME280;11998;55.788;37.572;2022-09-01T03:04:41;98354.72;;;10.24;100.00
23643;BME280;11998;55.788;37.572;2022-09-01T03:05:42;98361.63;;;10.28;100.00
23643;BME280;11998;55.788;37.572;2022-09-01T03:06:43;98357.81;;;10.36;100.00
23643;BME280;11998;55.788;37.572;2022-09-01T03:07:44;98357.47;;;10.45;100.00
23643;BME280;11998;55.788;37.572;2022-09-01T03:08:44;98354.75;;;10.46;100.00
23643;BME280;11998;55.788;37.572;2022-09-01T03:09:45;98351.91;;;10.51;100.00
23643;BME280;11998;55.788;37.572;2022-09-01T03:10:45;98357.22;;;10.51;100.00
23643;BME280;11998;55.788;37.572;2022-09-01T03:11:49;98351.69;;;10.57;100.00
23643;BME280;11998;55.788;37.572;2022-09-01T03:12:52;98343.63;;;10.60;100.00
23643;BME280;11998;55.788;37.572;2022-09-01T03:13:52;98345.28;;;10.63;100.00
23643;BME280;11998;55.788;37.572;2022-09-01T03:14:53;98345.75;;;10.72;100.00
23643;BME280;11998;55.788;37.572;2022-09-01T03:15:53;98351.06;;;10.72;100.00
23643;BME280;11998;55.788;37.572;2022-09-01T03:16:54;98350.69;;;10.81;100.00
23643;BME280;11998;55.788;37.572;2022-09-01T03:17:54;98347.13;;;10.82;100.00
23643;BME280;11998;55.788;37.572;2022-09-01T03:18:57;98347.25;;;10.79;100.00
23643;BME280;11998;55.788;37.572;2022-09-01T03:19:57;98346.25;;;10.82;100.00
23643;BME280;11998;55.788;37.572;2022-09-01T03:20:59;98343.53;;;10.83;100.00
23643;BME280;11998;55.788;37.572;2022-09-01T03:22:01;98342.63;;;10.84;100.00
23643;BME280;11998;55.788;37.572;2022-09-01T03:23:04;98343.69;;;10.80;100.00
23643;BME280;11998;55.788;37.572;2022-09-01T03:24:11;98345.34;;;10.83;100.00
23643;BME280;11998;55.788;37.572;2022-09-01T03:25:14;98347.91;;;10.84;100.00
23643;BME280;11998;55.788;37.572;2022-09-01T03:26:16;98346.13;;;10.85;100.00
23643;BME280;11998;55.788;37.572;2022-09-01T03:27:18;98353.06;;;10.87;100.00
23643;BME280;11998;55.788;37.572;2022-09-01T03:28:19;98345.06;;;10.89;100.00
23643;BME280;11998;55.788;37.572;2022-09-01T03:29:19;98353.78;;;10.93;100.00
23643;BME280;11998;55.788;37.572;2022-09-01T03:30:20;98354.78;;;10.88;100.00
23643;BME280;11998;55.788;37.572;2022-09-01T03:31:20;98343.28;;;10.89;100.00
23643;BME280;11998;55.788;37.572;2022-09-01T03:32:21;98350.28;;;10.91;100.00
23643;BME280;11998;55.788;37.572;2022-09-01T03:33:23;98338.72;;;10.93;100.00
23643;BME280;11998;55.788;37.572;2022-09-01T03:34:24;98348.34;;;10.96;100.00
23643;BME280;11998;55.788;37.572;2022-09-01T03:35:27;98347.28;;;11.00;100.00
23643;BME280;11998;55.788;37.572;2022-09-01T03:36:30;98335.50;;;11.07;100.00
23643;BME280;11998;55.788;37.572;2022-09-01T03:37:32;98342.53;;;11.08;100.00
23643;BME280;11998;55.788;37.572;2022-09-01T03:38:33;98341.31;;;11.15;100.00
23643;BME280;11998;55.788;37.572;2022-09-01T03:39:34;98338.41;;;11.21;100.00
23643;BME280;11998;55.788;37.572;2022-09-01T03:40:36;98331.13;;;11.26;100.00
23643;BME280;11998;55.788;37.572;2022-09-01T03:41:36;98335.16;;;11.35;100.00
23643;BME280;11998;55.788;37.572;2022-09-01T03:42:38;98336.03;;;11.35;100.00
23643;BME280;11998;55.788;37.572;2022-09-01T03:43:39;98335.88;;;11.38;100.00
23643;BME280;11998;55.788;37.572;2022-09-01T03:44:40;98343.78;;;11.40;100.00
23643;BME280;11998;55.788;37.572;2022-09-01T03:45:42;98336.56;;;11.43;100.00
23643;BME280;11998;55.788;37.572;2022-09-01T03:46:43;98342.66;;;11.45;100.00
23643;BME280;11998;55.788;37.572;2022-09-01T03:47:44;98340.53;;;11.54;100.00
23643;BME280;11998;55.788;37.572;2022-09-01T03:48:55;98340.41;;;11.57;100.00
23643;BME280;11998;55.788;37.572;2022-09-01T03:49:57;98328.94;;;11.56;100.00
23643;BME280;11998;55.788;37.572;2022-09-01T03:50:59;98345.97;;;11.51;100.00
23643;BME280;11998;55.788;37.572;2022-09-01T03:52:03;98340.81;;;11.47;100.00
23643;BME280;11998;55.788;37.572;2022-09-01T03:53:03;98346.09;;;11.47;100.00
23643;BME280;11998;55.788;37.572;2022-09-01T03:54:04;98336.97;;;11.55;100.00
23643;BME280;11998;55.788;37.572;2022-09-01T03:55:05;98344.00;;;11.56;100.00
23643;BME280;11998;55.788;37.572;2022-09-01T03:56:06;98343.84;;;11.59;100.00
23643;BME280;11998;55.788;37.572;2022-09-01T03:57:08;98340.00;;;11.66;100.00
23643;BME280;11998;55.788;37.572;2022-09-01T03:58:10;98342.59;;;11.67;100.00
23643;BME280;11998;55.788;37.572;2022-09-01T03:59:11;98346.03;;;11.69;100.00
23643;BME280;11998;55.788;37.572;2022-09-01T04:00:17;98340.72;;;11.69;100.00
23643;BME280;11998;55.788;37.572;2022-09-01T04:01:23;98333.81;;;11.65;100.00
23643;BME280;11998;55.788;37.572;2022-09-01T04:02:24;98336.41;;;11.67;100.00
23643;BME280;11998;55.788;37.572;2022-09-01T04:03:32;98340.88;;;11.66;100.00
23643;BME280;11998;55.788;37.572;2022-09-01T04:04:34;98350.31;;;11.72;100.00
23643;BME280;11998;55.788;37.572;2022-09-01T04:05:35;98346.88;;;11.70;100.00
23643;BME280;11998;55.788;37.572;2022-09-01T04:06:36;98343.09;;;11.75;100.00
23643;BME280;11998;55.788;37.572;2022-09-01T04:07:37;98336.13;;;11.73;100.00
23643;BME280;11998;55.788;37.572;2022-09-01T04:08:37;98341.84;;;11.64;100.00
23643;BME280;11998;55.788;37.572;2022-09-01T04:09:39;98333.47;;;11.73;100.00
23643;BME280;11998;55.788;37.572;2022-09-01T04:10:53;98335.19;;;11.74;100.00
23643;BME280;11998;55.788;37.572;2022-09-01T04:11:53;98335.19;;;11.74;100.00
23643;BME280;11998;55.788;37.572;2022-09-01T04:12:54;98340.44;;;11.75;100.00
23643;BME280;11998;55.788;37.572;2022-09-01T04:13:59;98334.34;;;11.73;100.00
23643;BME280;11998;55.788;37.572;2022-09-01T04:14:59;98334.25;;;11.75;100.00
23643;BME280;11998;55.788;37.572;2022-09-01T04:16:00;98336.22;;;11.51;100.00
23643;BME280;11998;55.788;37.572;2022-09-01T04:17:00;98335.25;;;11.54;100.00
23643;BME280;11998;55.788;37.572;2022-09-01T04:18:20;98346.63;;;11.56;100.00
23643;BME280;11998;55.788;37.572;2022-09-01T04:19:23;98326.06;;;11.61;100.00
23643;BME280;11998;55.788;37.572;2022-09-01T04:20:26;98325.28;;;11.59;100.00
23643;BME280;11998;55.788;37.572;2022-09-01T04:21:28;98337.53;;;11.61;100.00
23643;BME280;11998;55.788;37.572;2022-09-01T04:22:29;98331.16;;;11.65;100.00
23643;BME280;11998;55.788;37.572;2022-09-01T04:23:33;98337.47;;;11.63;100.00
23643;BME280;11998;55.788;37.572;2022-09-01T04:24:34;98343.31;;;11.51;100.00
23643;BME280;11998;55.788;37.572;2022-09-01T04:25:38;98334.41;;;11.52;100.00
23643;BME280;11998;55.788;37.572;2022-09-01T04:26:40;98330.91;;;11.51;100.00
23643;BME280;11998;55.788;37.572;2022-09-01T04:27:41;98335.34;;;11.51;100.00
23643;BME280;11998;55.788;37.572;2022-09-01T04:28:44;98333.25;;;11.59;100.00
23643;BME280;11998;55.788;37.572;2022-09-01T04:29:45;98333.25;;;11.59;100.00
23643;BME280;11998;55.788;37.572;2022-09-01T04:30:47;98320.84;;;11.59;100.00
23643;BME280;11998;55.788;37.572;2022-09-01T04:31:49;98334.88;;;11.61;100.00
23643;BME280;11998;55.788;37.572;2022-09-01T04:32:51;98330.97;;;11.70;100.00
23643;BME280;11998;55.788;37.572;2022-09-01T04:33:55;98327.16;;;11.75;100.00
23643;BME280;11998;55.788;37.572;2022-09-01T04:34:55;98328.81;;;11.78;100.00
23643;BME280;11998;55.788;37.572;2022-09-01T04:35:56;98325.38;;;11.76;100.00
23643;BME280;11998;55.788;37.572;2022-09-01T04:36:56;98325.38;;;11.76;100.00
23643;BME280;11998;55.788;37.572;2022-09-01T04:37:58;98323.50;;;11.78;100.00
23643;BME280;11998;55.788;37.572;2022-09-01T04:39:00;98310.94;;;11.83;100.00
23643;BME280;11998;55.788;37.572;2022-09-01T04:40:02;98320.28;;;11.92;100.00
23643;BME280;11998;55.788;37.572;2022-09-01T04:41:04;98319.28;;;11.94;100.00
23643;BME280;11998;55.788;37.572;2022-09-01T04:42:06;98320.56;;;12.04;100.00
23643;BME280;11998;55.788;37.572;2022-09-01T04:43:08;98327.16;;;12.15;100.00
23643;BME280;11998;55.788;37.572;2022-09-01T04:44:10;98317.13;;;12.21;100.00
23643;BME280;11998;55.788;37.572;2022-09-01T04:45:11;98314.38;;;12.23;100.00
23643;BME280;11998;55.788;37.572;2022-09-01T04:46:15;98323.72;;;12.31;100.00
23643;BME280;11998;55.788;37.572;2022-09-01T04:47:16;98321.16;;;12.30;100.00
23643;BME280;11998;55.788;37.572;2022-09-01T04:48:19;98323.00;;;12.28;100.00
23643;BME280;11998;55.788;37.572;2022-09-01T04:49:21;98320.78;;;12.19;100.00
23643;BME280;11998;55.788;37.572;2022-09-01T04:50:22;98315.97;;;12.27;100.00
23643;BME280;11998;55.788;37.572;2022-09-01T04:51:26;98316.47;;;12.35;100.00
23643;BME280;11998;55.788;37.572;2022-09-01T04:52:27;98310.38;;;12.33;100.00
23643;BME280;11998;55.788;37.572;2022-09-01T04:53:27;98317.56;;;12.31;100.00
23643;BME280;11998;55.788;37.572;2022-09-01T04:54:29;98312.25;;;12.12;100.00
23643;BME280;11998;55.788;37.572;2022-09-01T04:55:37;98311.88;;;12.20;100.00
23643;BME280;11998;55.788;37.572;2022-09-01T04:56:42;98306.16;;;12.29;100.00
23643;BME280;11998;55.788;37.572;2022-09-01T04:57:45;98306.28;;;12.26;100.00
23643;BME280;11998;55.788;37.572;2022-09-01T04:58:46;98312.09;;;12.34;100.00
23643;BME280;11998;55.788;37.572;2022-09-01T04:59:47;98317.41;;;12.34;100.00
23643;BME280;11998;55.788;37.572;2022-09-01T05:00:48;98312.66;;;12.41;100.00
23643;BME280;11998;55.788;37.572;2022-09-01T05:01:51;98313.22;;;12.47;100.00
23643;BME280;11998;55.788;37.572;2022-09-01T05:02:59;98316.50;;;12.52;100.00
23643;BME280;11998;55.788;37.572;2022-09-01T05:04:05;98310.47;;;12.68;100.00
23643;BME280;11998;55.788;37.572;2022-09-01T05:05:05;98309.84;;;12.80;100.00
23643;BME280;11998;55.788;37.572;2022-09-01T05:06:17;98321.47;;;12.77;100.00
23643;BME280;11998;55.788;37.572;2022-09-01T05:07:18;98312.81;;;12.74;100.00
23643;BME280;11998;55.788;37.572;2022-09-01T05:08:20;98312.03;;;12.72;100.00
23643;BME280;11998;55.788;37.572;2022-09-01T05:09:22;98314.69;;;12.89;100.00
23643;BME280;11998;55.788;37.572;2022-09-01T05:10:24;98304.78;;;12.92;100.00
23643;BME280;11998;55.788;37.572;2022-09-01T05:11:29;98321.59;;;12.93;100.00
23643;BME280;11998;55.788;37.572;2022-09-01T05:12:31;98327.06;;;12.90;100.00
23643;BME280;11998;55.788;37.572;2022-09-01T05:13:32;98314.84;;;12.86;100.00
23643;BME280;11998;55.788;37.572;2022-09-01T05:14:32;98326.50;;;12.83;100.00
23643;BME280;11998;55.788;37.572;2022-09-01T05:15:33;98316.72;;;12.84;100.00
23643;BME280;11998;55.788;37.572;2022-09-01T05:16:34;98318.56;;;12.64;100.00
23643;BME280;11998;55.788;37.572;2022-09-01T05:17:36;98319.84;;;12.75;100.00
23643;BME280;11998;55.788;37.572;2022-09-01T05:18:39;98313.75;;;12.73;100.00
23643;BME280;11998;55.788;37.572;2022-09-01T05:19:43;98315.88;;;12.83;100.00
23643;BME280;11998;55.788;37.572;2022-09-01T05:20:44;98326.91;;;12.93;100.00
23643;BME280;11998;55.788;37.572;2022-09-01T05:21:46;98325.63;;;12.83;100.00
23643;BME280;11998;55.788;37.572;2022-09-01T05:22:47;98320.88;;;12.89;100.00
23643;BME280;11998;55.788;37.572;2022-09-01T05:23:48;98307.53;;;12.91;100.00
23643;BME280;11998;55.788;37.572;2022-09-01T05:24:50;98305.50;;;12.96;100.00